Backworth, United Kingdom
Current Conditions -  °F | °C
As of 10:20 PM on Friday 19 Dec 2014 (Local Time) from EGNT Reporting Station
Few Clouds Few Clouds  
Wind Chill: 31°   Ceiling: Unl
Heat Index: 41°   Visibility: 6mi
Dew Point: 36°   Wind: 23mph
Humidity: 81%   Direction: 260°W
Pressure: 29.83"   Gusts: 38mph
Location:  55.04°N, 1.53°W
Report Text: EGNT 192220Z 26020G33KT 9999 FEW011 05/02 Q1010
Loading
Personal Weather Stations






























Interactive Weather Map New forecast layout! Learn more

10-Day Weather Forecast

Advertisements
Track Severe Weather on mobile